sensor_id;sensor_type;location;lat;lon;timestamp;P1;durP1;ratioP1;P2;durP2;ratioP2
545;SDS011;259;53.304;9.816;2023-05-03T00:00:23;1.40;;;1.30;;
545;SDS011;259;53.304;9.816;2023-05-03T00:02:50;2.20;;;1.10;;
545;SDS011;259;53.304;9.816;2023-05-03T00:05:18;1.30;;;1.20;;
545;SDS011;259;53.304;9.816;2023-05-03T00:07:44;1.17;;;1.10;;
545;SDS011;259;53.304;9.816;2023-05-03T00:10:10;1.97;;;1.80;;
545;SDS011;259;53.304;9.816;2023-05-03T00:12:40;1.37;;;1.27;;
545;SDS011;259;53.304;9.816;2023-05-03T00:15:07;1.30;;;1.20;;
545;SDS011;259;53.304;9.816;2023-05-03T00:17:35;1.20;;;1.10;;
545;SDS011;259;53.304;9.816;2023-05-03T00:20:02;1.23;;;1.17;;
545;SDS011;259;53.304;9.816;2023-05-03T00:22:28;1.50;;;1.20;;
545;SDS011;259;53.304;9.816;2023-05-03T00:24:54;1.53;;;0.90;;
545;SDS011;259;53.304;9.816;2023-05-03T00:27:20;1.60;;;1.50;;
545;SDS011;259;53.304;9.816;2023-05-03T00:29:46;1.37;;;1.17;;
545;SDS011;259;53.304;9.816;2023-05-03T00:32:16;2.47;;;1.37;;
545;SDS011;259;53.304;9.816;2023-05-03T00:34:42;1.53;;;1.30;;
545;SDS011;259;53.304;9.816;2023-05-03T00:37:08;1.40;;;1.30;;
545;SDS011;259;53.304;9.816;2023-05-03T00:39:34;1.40;;;1.30;;
545;SDS011;259;53.304;9.816;2023-05-03T00:42:00;1.30;;;1.20;;
545;SDS011;259;53.304;9.816;2023-05-03T00:44:28;1.20;;;1.07;;
545;SDS011;259;53.304;9.816;2023-05-03T00:46:54;0.87;;;0.87;;
545;SDS011;259;53.304;9.816;2023-05-03T00:49:20;1.23;;;1.23;;
545;SDS011;259;53.304;9.816;2023-05-03T00:51:48;1.07;;;1.00;;
545;SDS011;259;53.304;9.816;2023-05-03T00:54:17;1.50;;;1.40;;
545;SDS011;259;53.304;9.816;2023-05-03T00:56:43;2.23;;;1.67;;
545;SDS011;259;53.304;9.816;2023-05-03T00:59:09;1.27;;;1.17;;
545;SDS011;259;53.304;9.816;2023-05-03T01:01:37;1.20;;;1.10;;
545;SDS011;259;53.304;9.816;2023-05-03T01:04:03;1.30;;;1.20;;
545;SDS011;259;53.304;9.816;2023-05-03T01:06:33;1.10;;;1.10;;
545;SDS011;259;53.304;9.816;2023-05-03T01:09:04;1.20;;;1.13;;
545;SDS011;259;53.304;9.816;2023-05-03T01:17:57;0.83;;;0.83;;
545;SDS011;259;53.304;9.816;2023-05-03T01:20:29;1.03;;;1.00;;
545;SDS011;259;53.304;9.816;2023-05-03T01:23:00;1.10;;;1.07;;
545;SDS011;259;53.304;9.816;2023-05-03T01:25:36;1.20;;;1.10;;
545;SDS011;259;53.304;9.816;2023-05-03T01:28:02;1.20;;;1.10;;
545;SDS011;259;53.304;9.816;2023-05-03T01:30:27;1.30;;;1.20;;
545;SDS011;259;53.304;9.816;2023-05-03T01:33:02;0.90;;;0.90;;
545;SDS011;259;53.304;9.816;2023-05-03T01:38:23;1.00;;;1.00;;
545;SDS011;259;53.304;9.816;2023-05-03T01:40:50;1.20;;;1.10;;
545;SDS011;259;53.304;9.816;2023-05-03T01:43:36;1.00;;;1.00;;
545;SDS011;259;53.304;9.816;2023-05-03T01:46:04;1.07;;;1.00;;
545;SDS011;259;53.304;9.816;2023-05-03T01:48:30;1.07;;;1.07;;
545;SDS011;259;53.304;9.816;2023-05-03T01:50:56;1.50;;;1.40;;
545;SDS011;259;53.304;9.816;2023-05-03T01:53:22;0.80;;;0.80;;
545;SDS011;259;53.304;9.816;2023-05-03T01:55:47;1.13;;;1.00;;
545;SDS011;259;53.304;9.816;2023-05-03T01:58:13;1.20;;;1.10;;
545;SDS011;259;53.304;9.816;2023-05-03T02:00:40;1.03;;;1.00;;
545;SDS011;259;53.304;9.816;2023-05-03T02:03:05;1.00;;;1.00;;
545;SDS011;259;53.304;9.816;2023-05-03T02:05:31;1.30;;;1.20;;
545;SDS011;259;53.304;9.816;2023-05-03T02:07:57;1.27;;;1.17;;
545;SDS011;259;53.304;9.816;2023-05-03T02:10:22;1.10;;;1.00;;
545;SDS011;259;53.304;9.816;2023-05-03T02:12:49;1.00;;;1.00;;
545;SDS011;259;53.304;9.816;2023-05-03T02:15:15;1.00;;;1.00;;
545;SDS011;259;53.304;9.816;2023-05-03T02:17:42;1.20;;;1.10;;
545;SDS011;259;53.304;9.816;2023-05-03T02:20:09;1.00;;;1.00;;
545;SDS011;259;53.304;9.816;2023-05-03T02:22:36;0.93;;;0.93;;
545;SDS011;259;53.304;9.816;2023-05-03T02:25:02;0.93;;;0.93;;
545;SDS011;259;53.304;9.816;2023-05-03T02:27:28;1.10;;;1.07;;
545;SDS011;259;53.304;9.816;2023-05-03T02:29:53;0.90;;;0.70;;
545;SDS011;259;53.304;9.816;2023-05-03T02:32:20;1.30;;;1.20;;
545;SDS011;259;53.304;9.816;2023-05-03T02:34:46;1.10;;;1.00;;
545;SDS011;259;53.304;9.816;2023-05-03T02:37:13;1.00;;;1.00;;
545;SDS011;259;53.304;9.816;2023-05-03T02:39:39;0.90;;;0.90;;
545;SDS011;259;53.304;9.816;2023-05-03T02:42:04;2.17;;;1.13;;
545;SDS011;259;53.304;9.816;2023-05-03T02:44:30;1.10;;;1.00;;
545;SDS011;259;53.304;9.816;2023-05-03T02:46:56;1.00;;;1.00;;
545;SDS011;259;53.304;9.816;2023-05-03T02:49:22;1.37;;;1.27;;
545;SDS011;259;53.304;9.816;2023-05-03T02:51:47;1.07;;;1.07;;
545;SDS011;259;53.304;9.816;2023-05-03T02:54:13;1.00;;;1.00;;
545;SDS011;259;53.304;9.816;2023-05-03T02:56:39;1.10;;;1.10;;
545;SDS011;259;53.304;9.816;2023-05-03T02:59:04;1.20;;;1.10;;
545;SDS011;259;53.304;9.816;2023-05-03T03:01:31;1.20;;;1.10;;
545;SDS011;259;53.304;9.816;2023-05-03T03:03:58;1.30;;;1.10;;
545;SDS011;259;53.304;9.816;2023-05-03T03:06:24;1.03;;;1.00;;
545;SDS011;259;53.304;9.816;2023-05-03T03:08:49;1.27;;;1.17;;
545;SDS011;259;53.304;9.816;2023-05-03T03:11:15;1.20;;;1.10;;
545;SDS011;259;53.304;9.816;2023-05-03T03:13:41;0.80;;;0.80;;
545;SDS011;259;53.304;9.816;2023-05-03T03:16:07;0.80;;;0.80;;
545;SDS011;259;53.304;9.816;2023-05-03T03:18:34;1.00;;;0.90;;
545;SDS011;259;53.304;9.816;2023-05-03T03:21:00;0.90;;;0.90;;
545;SDS011;259;53.304;9.816;2023-05-03T03:23:27;0.97;;;0.97;;
545;SDS011;259;53.304;9.816;2023-05-03T03:25:53;1.20;;;1.10;;
545;SDS011;259;53.304;9.816;2023-05-03T03:28:19;1.20;;;0.80;;
545;SDS011;259;53.304;9.816;2023-05-03T03:30:45;1.03;;;1.03;;
545;SDS011;259;53.304;9.816;2023-05-03T03:33:11;1.00;;;1.00;;
545;SDS011;259;53.304;9.816;2023-05-03T03:35:37;1.30;;;1.20;;
545;SDS011;259;53.304;9.816;2023-05-03T03:38:03;1.00;;;1.00;;
545;SDS011;259;53.304;9.816;2023-05-03T03:40:29;0.90;;;0.90;;
545;SDS011;259;53.304;9.816;2023-05-03T03:42:55;1.30;;;1.20;;
545;SDS011;259;53.304;9.816;2023-05-03T03:45:21;1.00;;;1.00;;
545;SDS011;259;53.304;9.816;2023-05-03T03:47:46;1.00;;;1.00;;
545;SDS011;259;53.304;9.816;2023-05-03T03:50:12;1.30;;;1.20;;
545;SDS011;259;53.304;9.816;2023-05-03T03:52:38;1.00;;;1.00;;
545;SDS011;259;53.304;9.816;2023-05-03T03:55:04;1.17;;;1.07;;
545;SDS011;259;53.304;9.816;2023-05-03T03:57:30;1.33;;;1.23;;
545;SDS011;259;53.304;9.816;2023-05-03T03:59:56;0.97;;;0.97;;
545;SDS011;259;53.304;9.816;2023-05-03T04:02:23;1.67;;;1.17;;
545;SDS011;259;53.304;9.816;2023-05-03T04:04:49;1.10;;;1.10;;
545;SDS011;259;53.304;9.816;2023-05-03T04:07:14;1.37;;;1.20;;
545;SDS011;259;53.304;9.816;2023-05-03T04:09:40;1.10;;;1.10;;
545;SDS011;259;53.304;9.816;2023-05-03T04:12:06;1.00;;;1.00;;
545;SDS011;259;53.304;9.816;2023-05-03T04:14:32;1.20;;;1.10;;
545;SDS011;259;53.304;9.816;2023-05-03T04:16:58;1.30;;;1.20;;
545;SDS011;259;53.304;9.816;2023-05-03T04:19:23;1.43;;;1.33;;
545;SDS011;259;53.304;9.816;2023-05-03T04:21:50;0.90;;;0.90;;
545;SDS011;259;53.304;9.816;2023-05-03T04:24:16;0.97;;;0.97;;
545;SDS011;259;53.304;9.816;2023-05-03T04:26:42;1.10;;;1.00;;
545;SDS011;259;53.304;9.816;2023-05-03T04:29:08;1.07;;;1.03;;
545;SDS011;259;53.304;9.816;2023-05-03T04:31:35;1.40;;;1.00;;
545;SDS011;259;53.304;9.816;2023-05-03T04:34:02;3.23;;;1.27;;
545;SDS011;259;53.304;9.816;2023-05-03T04:36:28;1.30;;;1.20;;
545;SDS011;259;53.304;9.816;2023-05-03T04:38:54;1.00;;;1.00;;
545;SDS011;259;53.304;9.816;2023-05-03T04:41:20;1.00;;;1.00;;
545;SDS011;259;53.304;9.816;2023-05-03T04:43:48;0.80;;;0.80;;
545;SDS011;259;53.304;9.816;2023-05-03T04:46:14;1.00;;;1.00;;
545;SDS011;259;53.304;9.816;2023-05-03T04:48:40;0.80;;;0.80;;
545;SDS011;259;53.304;9.816;2023-05-03T04:51:06;1.03;;;1.03;;
545;SDS011;259;53.304;9.816;2023-05-03T04:53:32;1.00;;;1.00;;
545;SDS011;259;53.304;9.816;2023-05-03T04:55:58;0.70;;;0.70;;
545;SDS011;259;53.304;9.816;2023-05-03T04:58:24;1.27;;;1.17;;
545;SDS011;259;53.304;9.816;2023-05-03T05:00:49;1.13;;;1.03;;
545;SDS011;259;53.304;9.816;2023-05-03T05:03:16;1.33;;;1.27;;
545;SDS011;259;53.304;9.816;2023-05-03T05:05:41;1.00;;;1.00;;
545;SDS011;259;53.304;9.816;2023-05-03T05:08:07;0.80;;;0.80;;
545;SDS011;259;53.304;9.816;2023-05-03T05:10:36;1.50;;;1.40;;
545;SDS011;259;53.304;9.816;2023-05-03T05:13:04;1.03;;;1.03;;
545;SDS011;259;53.304;9.816;2023-05-03T05:15:31;0.97;;;0.97;;
545;SDS011;259;53.304;9.816;2023-05-03T05:17:56;1.20;;;1.10;;
545;SDS011;259;53.304;9.816;2023-05-03T05:20:22;1.10;;;1.10;;
545;SDS011;259;53.304;9.816;2023-05-03T05:22:48;0.93;;;0.90;;
545;SDS011;259;53.304;9.816;2023-05-03T05:25:13;1.00;;;1.00;;
545;SDS011;259;53.304;9.816;2023-05-03T05:27:39;1.03;;;1.03;;
545;SDS011;259;53.304;9.816;2023-05-03T05:30:05;1.10;;;0.97;;
545;SDS011;259;53.304;9.816;2023-05-03T05:32:32;1.20;;;1.10;;
545;SDS011;259;53.304;9.816;2023-05-03T05:34:57;1.03;;;1.03;;
545;SDS011;259;53.304;9.816;2023-05-03T05:37:24;0.90;;;0.90;;
545;SDS011;259;53.304;9.816;2023-05-03T05:39:51;1.20;;;1.10;;
545;SDS011;259;53.304;9.816;2023-05-03T05:42:19;0.97;;;0.97;;
545;SDS011;259;53.304;9.816;2023-05-03T05:44:45;1.03;;;0.93;;
545;SDS011;259;53.304;9.816;2023-05-03T05:47:11;0.87;;;0.87;;
545;SDS011;259;53.304;9.816;2023-05-03T05:49:36;1.30;;;1.20;;
545;SDS011;259;53.304;9.816;2023-05-03T05:52:02;14.50;;;5.70;;
545;SDS011;259;53.304;9.816;2023-05-03T05:54:28;20.33;;;8.30;;
545;SDS011;259;53.304;9.816;2023-05-03T05:56:53;14.50;;;8.50;;
545;SDS011;259;53.304;9.816;2023-05-03T05:59:19;902.17;;;287.67;;
545;SDS011;259;53.304;9.816;2023-05-03T06:01:45;758.80;;;295.37;;
545;SDS011;259;53.304;9.816;2023-05-03T06:04:11;495.67;;;188.00;;
545;SDS011;259;53.304;9.816;2023-05-03T06:06:37;277.93;;;111.63;;
545;SDS011;259;53.304;9.816;2023-05-03T06:09:03;108.13;;;44.97;;
545;SDS011;259;53.304;9.816;2023-05-03T06:11:29;53.33;;;22.50;;
545;SDS011;259;53.304;9.816;2023-05-03T06:13:55;33.90;;;15.63;;
545;SDS011;259;53.304;9.816;2023-05-03T06:16:22;16.93;;;9.03;;
545;SDS011;259;53.304;9.816;2023-05-03T06:18:48;15.70;;;6.93;;
545;SDS011;259;53.304;9.816;2023-05-03T06:21:14;10.20;;;5.13;;
545;SDS011;259;53.304;9.816;2023-05-03T06:23:40;12.17;;;4.90;;
545;SDS011;259;53.304;9.816;2023-05-03T06:26:06;7.60;;;4.63;;
545;SDS011;259;53.304;9.816;2023-05-03T06:28:32;10.37;;;3.60;;
545;SDS011;259;53.304;9.816;2023-05-03T06:30:59;14.23;;;4.13;;
545;SDS011;259;53.304;9.816;2023-05-03T06:33:25;9.63;;;2.77;;
545;SDS011;259;53.304;9.816;2023-05-03T06:35:51;6.00;;;2.70;;
545;SDS011;259;53.304;9.816;2023-05-03T06:38:16;4.10;;;2.30;;
545;SDS011;259;53.304;9.816;2023-05-03T06:40:45;7.63;;;2.60;;
545;SDS011;259;53.304;9.816;2023-05-03T06:43:12;7.73;;;2.97;;
545;SDS011;259;53.304;9.816;2023-05-03T06:45:38;5.00;;;2.63;;
545;SDS011;259;53.304;9.816;2023-05-03T06:48:06;8.47;;;2.90;;
545;SDS011;259;53.304;9.816;2023-05-03T06:50:32;7.67;;;2.83;;
545;SDS011;259;53.304;9.816;2023-05-03T06:52:58;7.83;;;2.90;;
545;SDS011;259;53.304;9.816;2023-05-03T06:55:24;5.73;;;2.60;;
545;SDS011;259;53.304;9.816;2023-05-03T06:57:49;5.97;;;2.47;;
545;SDS011;259;53.304;9.816;2023-05-03T07:00:16;8.30;;;2.73;;
545;SDS011;259;53.304;9.816;2023-05-03T07:02:43;7.83;;;3.40;;
545;SDS011;259;53.304;9.816;2023-05-03T07:05:09;10.30;;;2.63;;
545;SDS011;259;53.304;9.816;2023-05-03T07:07:35;6.20;;;2.37;;
545;SDS011;259;53.304;9.816;2023-05-03T07:10:01;11.70;;;3.87;;
545;SDS011;259;53.304;9.816;2023-05-03T07:12:27;5.10;;;2.40;;
545;SDS011;259;53.304;9.816;2023-05-03T07:14:55;7.57;;;2.50;;
545;SDS011;259;53.304;9.816;2023-05-03T07:17:22;9.00;;;2.67;;
545;SDS011;259;53.304;9.816;2023-05-03T07:19:51;3.17;;;2.40;;
545;SDS011;259;53.304;9.816;2023-05-03T07:22:17;6.13;;;1.93;;
545;SDS011;259;53.304;9.816;2023-05-03T07:24:50;6.63;;;2.60;;
545;SDS011;259;53.304;9.816;2023-05-03T07:27:18;17.17;;;3.30;;
545;SDS011;259;53.304;9.816;2023-05-03T07:29:45;6.90;;;2.37;;
545;SDS011;259;53.304;9.816;2023-05-03T07:32:10;3.77;;;2.20;;
545;SDS011;259;53.304;9.816;2023-05-03T07:34:36;5.37;;;2.10;;
545;SDS011;259;53.304;9.816;2023-05-03T07:37:02;10.87;;;2.30;;
545;SDS011;259;53.304;9.816;2023-05-03T07:39:28;5.33;;;1.80;;
545;SDS011;259;53.304;9.816;2023-05-03T07:41:54;6.77;;;3.00;;
545;SDS011;259;53.304;9.816;2023-05-03T07:44:20;9.77;;;2.77;;
545;SDS011;259;53.304;9.816;2023-05-03T07:46:46;8.83;;;2.30;;
545;SDS011;259;53.304;9.816;2023-05-03T07:49:12;9.70;;;2.73;;
545;SDS011;259;53.304;9.816;2023-05-03T07:51:38;12.77;;;2.77;;
545;SDS011;259;53.304;9.816;2023-05-03T07:54:04;15.23;;;3.50;;
545;SDS011;259;53.304;9.816;2023-05-03T07:56:30;10.40;;;2.17;;
545;SDS011;259;53.304;9.816;2023-05-03T07:58:56;9.93;;;3.30;;
545;SDS011;259;53.304;9.816;2023-05-03T08:01:22;12.33;;;2.40;;
545;SDS011;259;53.304;9.816;2023-05-03T08:03:48;12.87;;;2.57;;
545;SDS011;259;53.304;9.816;2023-05-03T08:06:17;7.03;;;2.60;;
545;SDS011;259;53.304;9.816;2023-05-03T08:08:43;5.17;;;2.37;;
545;SDS011;259;53.304;9.816;2023-05-03T08:11:09;14.73;;;2.80;;
545;SDS011;259;53.304;9.816;2023-05-03T08:13:35;4.10;;;1.67;;
545;SDS011;259;53.304;9.816;2023-05-03T08:16:02;6.67;;;2.10;;
545;SDS011;259;53.304;9.816;2023-05-03T08:18:28;5.17;;;1.63;;
545;SDS011;259;53.304;9.816;2023-05-03T08:20:54;4.23;;;2.53;;
545;SDS011;259;53.304;9.816;2023-05-03T08:23:19;5.10;;;2.23;;
545;SDS011;259;53.304;9.816;2023-05-03T08:25:46;14.40;;;2.40;;
545;SDS011;259;53.304;9.816;2023-05-03T08:28:14;9.60;;;2.97;;
545;SDS011;259;53.304;9.816;2023-05-03T08:30:40;12.40;;;2.50;;
545;SDS011;259;53.304;9.816;2023-05-03T08:33:06;11.93;;;3.40;;
545;SDS011;259;53.304;9.816;2023-05-03T08:35:35;13.03;;;3.37;;
545;SDS011;259;53.304;9.816;2023-05-03T08:38:01;15.87;;;3.53;;
545;SDS011;259;53.304;9.816;2023-05-03T08:40:26;7.30;;;2.60;;
545;SDS011;259;53.304;9.816;2023-05-03T08:42:53;15.83;;;3.43;;
545;SDS011;259;53.304;9.816;2023-05-03T08:45:21;15.83;;;3.23;;
545;SDS011;259;53.304;9.816;2023-05-03T08:47:51;13.93;;;2.80;;
545;SDS011;259;53.304;9.816;2023-05-03T08:50:19;15.67;;;2.33;;
545;SDS011;259;53.304;9.816;2023-05-03T08:52:45;7.30;;;2.23;;
545;SDS011;259;53.304;9.816;2023-05-03T08:55:11;6.30;;;2.57;;
545;SDS011;259;53.304;9.816;2023-05-03T08:57:37;9.40;;;2.90;;
545;SDS011;259;53.304;9.816;2023-05-03T09:00:04;6.40;;;2.40;;
545;SDS011;259;53.304;9.816;2023-05-03T09:02:34;12.47;;;3.30;;
545;SDS011;259;53.304;9.816;2023-05-03T09:05:03;7.63;;;2.23;;
545;SDS011;259;53.304;9.816;2023-05-03T09:07:38;7.50;;;2.03;;
545;SDS011;259;53.304;9.816;2023-05-03T09:10:15;2.87;;;1.50;;
545;SDS011;259;53.304;9.816;2023-05-03T09:12:48;19.80;;;2.60;;
545;SDS011;259;53.304;9.816;2023-05-03T09:15:19;18.47;;;3.73;;
545;SDS011;259;53.304;9.816;2023-05-03T09:17:49;9.53;;;2.97;;
545;SDS011;259;53.304;9.816;2023-05-03T09:20:32;9.33;;;2.60;;
545;SDS011;259;53.304;9.816;2023-05-03T09:23:00;12.33;;;3.00;;
545;SDS011;259;53.304;9.816;2023-05-03T09:25:38;9.17;;;2.60;;
545;SDS011;259;53.304;9.816;2023-05-03T09:28:12;10.43;;;2.77;;
545;SDS011;259;53.304;9.816;2023-05-03T09:30:39;12.47;;;3.37;;
545;SDS011;259;53.304;9.816;2023-05-03T09:33:06;10.07;;;2.40;;
545;SDS011;259;53.304;9.816;2023-05-03T09:35:32;7.77;;;1.63;;
545;SDS011;259;53.304;9.816;2023-05-03T09:37:59;3.23;;;1.53;;
545;SDS011;259;53.304;9.816;2023-05-03T09:40:26;2.83;;;1.80;;
545;SDS011;259;53.304;9.816;2023-05-03T09:45:38;3.93;;;1.70;;
545;SDS011;259;53.304;9.816;2023-05-03T09:48:04;2.83;;;1.80;;
545;SDS011;259;53.304;9.816;2023-05-03T09:50:35;5.13;;;4.20;;
545;SDS011;259;53.304;9.816;2023-05-03T09:53:03;7.20;;;3.20;;
545;SDS011;259;53.304;9.816;2023-05-03T09:55:34;8.03;;;3.17;;
545;SDS011;259;53.304;9.816;2023-05-03T09:58:02;6.37;;;3.03;;
545;SDS011;259;53.304;9.816;2023-05-03T10:00:38;9.27;;;3.50;;
545;SDS011;259;53.304;9.816;2023-05-03T10:03:08;13.97;;;3.70;;
545;SDS011;259;53.304;9.816;2023-05-03T10:05:46;10.10;;;3.50;;
545;SDS011;259;53.304;9.816;2023-05-03T10:08:15;11.33;;;3.53;;
545;SDS011;259;53.304;9.816;2023-05-03T10:10:52;18.80;;;4.33;;
545;SDS011;259;53.304;9.816;2023-05-03T10:13:19;25.37;;;5.40;;
545;SDS011;259;53.304;9.816;2023-05-03T10:15:48;20.03;;;4.57;;
545;SDS011;259;53.304;9.816;2023-05-03T10:18:23;23.93;;;5.77;;
545;SDS011;259;53.304;9.816;2023-05-03T10:21:06;28.13;;;6.10;;
545;SDS011;259;53.304;9.816;2023-05-03T10:26:40;42.57;;;9.23;;
545;SDS011;259;53.304;9.816;2023-05-03T10:29:56;26.30;;;7.43;;
545;SDS011;259;53.304;9.816;2023-05-03T10:31:57;27.70;;;7.77;;
545;SDS011;259;53.304;9.816;2023-05-03T10:34:23;23.87;;;7.77;;
545;SDS011;259;53.304;9.816;2023-05-03T10:36:54;24.70;;;9.00;;
545;SDS011;259;53.304;9.816;2023-05-03T10:39:20;34.77;;;9.30;;
545;SDS011;259;53.304;9.816;2023-05-03T10:42:03;36.13;;;7.70;;
545;SDS011;259;53.304;9.816;2023-05-03T10:47:14;28.70;;;7.70;;
545;SDS011;259;53.304;9.816;2023-05-03T10:49:41;26.67;;;7.20;;
545;SDS011;259;53.304;9.816;2023-05-03T10:55:08;27.90;;;8.90;;
545;SDS011;259;53.304;9.816;2023-05-03T10:57:42;33.33;;;6.33;;
545;SDS011;259;53.304;9.816;2023-05-03T11:03:01;22.10;;;5.97;;
545;SDS011;259;53.304;9.816;2023-05-03T11:05:35;26.20;;;5.80;;
545;SDS011;259;53.304;9.816;2023-05-03T11:08:12;22.97;;;5.70;;
545;SDS011;259;53.304;9.816;2023-05-03T11:10:42;15.13;;;5.20;;
545;SDS011;259;53.304;9.816;2023-05-03T11:13:09;22.43;;;6.03;;
545;SDS011;259;53.304;9.816;2023-05-03T11:15:36;12.10;;;4.10;;
545;SDS011;259;53.304;9.816;2023-05-03T11:18:02;15.50;;;5.40;;
545;SDS011;259;53.304;9.816;2023-05-03T11:20:30;13.17;;;4.93;;
545;SDS011;259;53.304;9.816;2023-05-03T11:22:56;13.80;;;4.10;;
545;SDS011;259;53.304;9.816;2023-05-03T11:25:22;15.67;;;4.37;;
545;SDS011;259;53.304;9.816;2023-05-03T11:27:48;16.93;;;3.57;;
545;SDS011;259;53.304;9.816;2023-05-03T11:30:14;11.60;;;4.60;;
545;SDS011;259;53.304;9.816;2023-05-03T11:32:42;7.73;;;3.57;;
545;SDS011;259;53.304;9.816;2023-05-03T11:35:09;9.20;;;3.70;;
545;SDS011;259;53.304;9.816;2023-05-03T11:37:37;7.00;;;3.73;;
545;SDS011;259;53.304;9.816;2023-05-03T11:40:03;11.83;;;3.90;;
545;SDS011;259;53.304;9.816;2023-05-03T11:42:32;8.23;;;3.23;;
545;SDS011;259;53.304;9.816;2023-05-03T11:44:59;7.70;;;3.40;;
545;SDS011;259;53.304;9.816;2023-05-03T11:47:25;7.77;;;4.37;;
545;SDS011;259;53.304;9.816;2023-05-03T11:52:22;9.50;;;3.20;;
545;SDS011;259;53.304;9.816;2023-05-03T11:54:49;6.80;;;3.23;;
545;SDS011;259;53.304;9.816;2023-05-03T11:57:16;5.77;;;3.37;;
545;SDS011;259;53.304;9.816;2023-05-03T11:59:43;8.37;;;4.00;;
545;SDS011;259;53.304;9.816;2023-05-03T12:02:11;8.67;;;2.63;;
545;SDS011;259;53.304;9.816;2023-05-03T12:04:39;7.53;;;3.63;;
545;SDS011;259;53.304;9.816;2023-05-03T12:07:06;11.87;;;3.93;;
545;SDS011;259;53.304;9.816;2023-05-03T12:09:34;9.20;;;4.43;;
545;SDS011;259;53.304;9.816;2023-05-03T12:12:00;18.73;;;4.53;;
545;SDS011;259;53.304;9.816;2023-05-03T12:14:53;13.63;;;4.00;;
545;SDS011;259;53.304;9.816;2023-05-03T12:17:38;9.90;;;4.53;;
545;SDS011;259;53.304;9.816;2023-05-03T12:20:22;13.83;;;4.00;;
545;SDS011;259;53.304;9.816;2023-05-03T12:22:52;10.63;;;4.50;;
545;SDS011;259;53.304;9.816;2023-05-03T12:25:20;13.87;;;5.50;;
545;SDS011;259;53.304;9.816;2023-05-03T12:27:46;17.80;;;4.20;;
545;SDS011;259;53.304;9.816;2023-05-03T12:30:12;19.10;;;4.10;;
545;SDS011;259;53.304;9.816;2023-05-03T12:32:39;8.93;;;3.50;;
545;SDS011;259;53.304;9.816;2023-05-03T12:35:06;14.60;;;4.23;;
545;SDS011;259;53.304;9.816;2023-05-03T12:37:35;9.73;;;3.73;;
545;SDS011;259;53.304;9.816;2023-05-03T12:40:02;12.67;;;4.00;;
545;SDS011;259;53.304;9.816;2023-05-03T12:42:28;7.73;;;3.33;;
545;SDS011;259;53.304;9.816;2023-05-03T12:44:57;11.93;;;3.60;;
545;SDS011;259;53.304;9.816;2023-05-03T12:47:23;23.83;;;5.90;;
545;SDS011;259;53.304;9.816;2023-05-03T12:49:50;20.90;;;5.63;;
545;SDS011;259;53.304;9.816;2023-05-03T12:52:17;8.43;;;3.13;;
545;SDS011;259;53.304;9.816;2023-05-03T12:54:43;11.90;;;3.37;;
545;SDS011;259;53.304;9.816;2023-05-03T12:57:10;11.27;;;3.10;;
545;SDS011;259;53.304;9.816;2023-05-03T12:59:37;14.40;;;4.03;;
545;SDS011;259;53.304;9.816;2023-05-03T13:02:03;17.57;;;4.83;;
545;SDS011;259;53.304;9.816;2023-05-03T13:04:30;13.57;;;3.20;;
545;SDS011;259;53.304;9.816;2023-05-03T13:06:57;10.60;;;4.13;;
545;SDS011;259;53.304;9.816;2023-05-03T13:09:22;13.57;;;2.97;;
545;SDS011;259;53.304;9.816;2023-05-03T13:11:48;12.17;;;3.23;;
545;SDS011;259;53.304;9.816;2023-05-03T13:14:15;16.97;;;4.70;;
545;SDS011;259;53.304;9.816;2023-05-03T13:16:45;10.73;;;3.50;;
545;SDS011;259;53.304;9.816;2023-05-03T13:19:13;8.63;;;2.83;;
545;SDS011;259;53.304;9.816;2023-05-03T13:21:39;4.10;;;2.33;;
545;SDS011;259;53.304;9.816;2023-05-03T13:24:05;3.37;;;2.07;;
545;SDS011;259;53.304;9.816;2023-05-03T13:26:31;4.13;;;2.30;;
545;SDS011;259;53.304;9.816;2023-05-03T13:28:57;7.40;;;2.10;;
545;SDS011;259;53.304;9.816;2023-05-03T13:31:24;6.90;;;2.20;;
545;SDS011;259;53.304;9.816;2023-05-03T13:33:52;7.57;;;2.30;;
545;SDS011;259;53.304;9.816;2023-05-03T13:36:19;4.00;;;1.60;;
545;SDS011;259;53.304;9.816;2023-05-03T13:38:48;3.97;;;1.80;;
545;SDS011;259;53.304;9.816;2023-05-03T13:41:15;2.13;;;1.70;;
545;SDS011;259;53.304;9.816;2023-05-03T13:43:42;3.77;;;1.60;;
545;SDS011;259;53.304;9.816;2023-05-03T13:46:07;3.97;;;2.30;;
545;SDS011;259;53.304;9.816;2023-05-03T13:48:33;2.47;;;1.80;;
545;SDS011;259;53.304;9.816;2023-05-03T13:50:59;2.10;;;1.70;;
545;SDS011;259;53.304;9.816;2023-05-03T13:53:32;2.90;;;1.67;;
545;SDS011;259;53.304;9.816;2023-05-03T13:55:58;5.90;;;2.50;;
545;SDS011;259;53.304;9.816;2023-05-03T13:58:24;1.90;;;1.50;;
545;SDS011;259;53.304;9.816;2023-05-03T14:00:50;2.63;;;2.30;;
545;SDS011;259;53.304;9.816;2023-05-03T14:03:16;4.20;;;1.47;;
545;SDS011;259;53.304;9.816;2023-05-03T14:05:41;3.37;;;1.77;;
545;SDS011;259;53.304;9.816;2023-05-03T14:08:07;3.07;;;1.50;;
545;SDS011;259;53.304;9.816;2023-05-03T14:10:33;4.50;;;1.50;;
545;SDS011;259;53.304;9.816;2023-05-03T14:12:59;2.27;;;1.33;;
545;SDS011;259;53.304;9.816;2023-05-03T14:15:25;2.97;;;1.90;;
545;SDS011;259;53.304;9.816;2023-05-03T14:17:51;1.80;;;1.17;;
545;SDS011;259;53.304;9.816;2023-05-03T14:20:16;1.77;;;1.67;;
545;SDS011;259;53.304;9.816;2023-05-03T14:22:43;1.70;;;1.60;;
545;SDS011;259;53.304;9.816;2023-05-03T14:25:09;2.10;;;1.73;;
545;SDS011;259;53.304;9.816;2023-05-03T14:27:35;2.37;;;1.83;;
545;SDS011;259;53.304;9.816;2023-05-03T14:30:01;1.97;;;1.53;;
545;SDS011;259;53.304;9.816;2023-05-03T14:32:27;2.70;;;1.70;;
545;SDS011;259;53.304;9.816;2023-05-03T14:34:53;1.33;;;1.23;;
545;SDS011;259;53.304;9.816;2023-05-03T14:37:19;1.60;;;1.50;;
545;SDS011;259;53.304;9.816;2023-05-03T14:39:45;2.13;;;1.20;;
545;SDS011;259;53.304;9.816;2023-05-03T14:42:11;1.90;;;1.80;;
545;SDS011;259;53.304;9.816;2023-05-03T14:44:37;3.50;;;1.83;;
545;SDS011;259;53.304;9.816;2023-05-03T14:47:03;7.93;;;2.20;;
545;SDS011;259;53.304;9.816;2023-05-03T14:49:30;8.30;;;3.23;;
545;SDS011;259;53.304;9.816;2023-05-03T14:52:04;7.70;;;3.03;;
545;SDS011;259;53.304;9.816;2023-05-03T14:54:33;11.30;;;3.00;;
545;SDS011;259;53.304;9.816;2023-05-03T14:57:00;12.07;;;3.27;;
545;SDS011;259;53.304;9.816;2023-05-03T14:59:26;11.90;;;3.17;;
545;SDS011;259;53.304;9.816;2023-05-03T15:01:51;7.43;;;2.67;;
545;SDS011;259;53.304;9.816;2023-05-03T15:04:17;10.10;;;2.80;;
545;SDS011;259;53.304;9.816;2023-05-03T15:06:44;7.20;;;2.90;;
545;SDS011;259;53.304;9.816;2023-05-03T15:09:10;5.07;;;2.50;;
545;SDS011;259;53.304;9.816;2023-05-03T15:11:37;6.23;;;3.10;;
545;SDS011;259;53.304;9.816;2023-05-03T15:14:06;5.30;;;2.60;;
545;SDS011;259;53.304;9.816;2023-05-03T15:16:33;6.57;;;2.97;;
545;SDS011;259;53.304;9.816;2023-05-03T15:18:59;9.73;;;2.60;;
545;SDS011;259;53.304;9.816;2023-05-03T15:21:25;3.77;;;2.17;;
545;SDS011;259;53.304;9.816;2023-05-03T15:23:52;6.50;;;2.10;;
545;SDS011;259;53.304;9.816;2023-05-03T15:26:18;3.63;;;2.00;;
545;SDS011;259;53.304;9.816;2023-05-03T15:28:44;8.43;;;2.43;;
545;SDS011;259;53.304;9.816;2023-05-03T15:31:13;4.33;;;2.10;;
545;SDS011;259;53.304;9.816;2023-05-03T15:33:40;3.93;;;2.10;;
545;SDS011;259;53.304;9.816;2023-05-03T15:36:07;5.00;;;2.13;;
545;SDS011;259;53.304;9.816;2023-05-03T15:38:35;5.20;;;2.47;;
545;SDS011;259;53.304;9.816;2023-05-03T15:41:02;4.60;;;1.77;;
545;SDS011;259;53.304;9.816;2023-05-03T15:43:30;3.90;;;1.73;;
545;SDS011;259;53.304;9.816;2023-05-03T15:45:56;1.60;;;1.50;;
545;SDS011;259;53.304;9.816;2023-05-03T15:48:22;6.93;;;1.97;;
545;SDS011;259;53.304;9.816;2023-05-03T15:50:48;1.77;;;1.60;;
545;SDS011;259;53.304;9.816;2023-05-03T15:53:14;3.53;;;1.67;;
545;SDS011;259;53.304;9.816;2023-05-03T15:55:40;2.70;;;1.27;;
545;SDS011;259;53.304;9.816;2023-05-03T15:58:06;1.53;;;1.43;;
545;SDS011;259;53.304;9.816;2023-05-03T16:00:33;3.27;;;1.70;;
545;SDS011;259;53.304;9.816;2023-05-03T16:03:00;1.70;;;1.37;;
545;SDS011;259;53.304;9.816;2023-05-03T16:05:26;2.00;;;1.40;;